sensor_id;sensor_type;location;lat;lon;timestamp;temperature;humidity
78438;SHT31;67736;51.978;5.656;2023-03-12T00:01:41;5.6;50.4
78438;SHT31;67736;51.978;5.656;2023-03-12T00:04:11;5.6;50.3
78438;SHT31;67736;51.978;5.656;2023-03-12T00:06:42;5.6;50.2
78438;SHT31;67736;51.978;5.656;2023-03-12T00:09:12;5.6;50.3
78438;SHT31;67736;51.978;5.656;2023-03-12T00:11:42;5.6;50.4
78438;SHT31;67736;51.978;5.656;2023-03-12T00:14:11;5.6;50.6
78438;SHT31;67736;51.978;5.656;2023-03-12T00:16:41;5.6;50.8
78438;SHT31;67736;51.978;5.656;2023-03-12T00:19:11;5.6;50.7
78438;SHT31;67736;51.978;5.656;2023-03-12T00:21:42;5.6;50.9
78438;SHT31;67736;51.978;5.656;2023-03-12T00:24:12;5.6;50.8
78438;SHT31;67736;51.978;5.656;2023-03-12T00:26:43;5.6;50.7
78438;SHT31;67736;51.978;5.656;2023-03-12T00:29:12;5.6;50.7
78438;SHT31;67736;51.978;5.656;2023-03-12T00:31:42;5.6;50.7
78438;SHT31;67736;51.978;5.656;2023-03-12T00:34:11;5.6;50.8
78438;SHT31;67736;51.978;5.656;2023-03-12T00:36:41;5.6;51.2
78438;SHT31;67736;51.978;5.656;2023-03-12T00:39:10;5.6;51.1
78438;SHT31;67736;51.978;5.656;2023-03-12T00:41:40;5.6;51.1
78438;SHT31;67736;51.978;5.656;2023-03-12T00:44:11;5.6;51.2
78438;SHT31;67736;51.978;5.656;2023-03-12T00:46:42;5.6;51.1
78438;SHT31;67736;51.978;5.656;2023-03-12T00:49:11;5.6;51.0
78438;SHT31;67736;51.978;5.656;2023-03-12T00:51:41;5.6;51.3
78438;SHT31;67736;51.978;5.656;2023-03-12T00:54:11;5.6;51.1
78438;SHT31;67736;51.978;5.656;2023-03-12T00:56:40;5.6;51.6
78438;SHT31;67736;51.978;5.656;2023-03-12T00:59:10;5.6;51.5
78438;SHT31;67736;51.978;5.656;2023-03-12T01:01:40;5.6;51.7
78438;SHT31;67736;51.978;5.656;2023-03-12T01:04:09;5.6;51.9
78438;SHT31;67736;51.978;5.656;2023-03-12T01:06:39;5.6;52.0
78438;SHT31;67736;51.978;5.656;2023-03-12T01:09:09;5.7;52.1
78438;SHT31;67736;51.978;5.656;2023-03-12T01:11:38;5.7;52.2
78438;SHT31;67736;51.978;5.656;2023-03-12T01:14:08;5.7;52.2
78438;SHT31;67736;51.978;5.656;2023-03-12T01:16:38;5.7;52.1
78438;SHT31;67736;51.978;5.656;2023-03-12T01:19:07;5.8;52.3
78438;SHT31;67736;51.978;5.656;2023-03-12T01:21:37;5.8;52.2
78438;SHT31;67736;51.978;5.656;2023-03-12T01:24:07;5.8;52.4
78438;SHT31;67736;51.978;5.656;2023-03-12T01:26:37;5.8;52.1
78438;SHT31;67736;51.978;5.656;2023-03-12T01:29:06;5.8;52.5
78438;SHT31;67736;51.978;5.656;2023-03-12T01:31:38;5.8;52.6
78438;SHT31;67736;51.978;5.656;2023-03-12T01:34:09;5.8;52.5
78438;SHT31;67736;51.978;5.656;2023-03-12T01:36:39;5.8;52.4
78438;SHT31;67736;51.978;5.656;2023-03-12T01:39:09;5.8;52.6
78438;SHT31;67736;51.978;5.656;2023-03-12T01:41:39;5.8;52.4
78438;SHT31;67736;51.978;5.656;2023-03-12T01:44:12;5.8;52.2
78438;SHT31;67736;51.978;5.656;2023-03-12T01:46:42;5.8;52.2
78438;SHT31;67736;51.978;5.656;2023-03-12T01:49:14;5.8;52.4
78438;SHT31;67736;51.978;5.656;2023-03-12T01:51:49;5.8;52.4
78438;SHT31;67736;51.978;5.656;2023-03-12T01:54:24;5.8;52.7
78438;SHT31;67736;51.978;5.656;2023-03-12T01:56:56;5.7;53.0
78438;SHT31;67736;51.978;5.656;2023-03-12T01:59:30;5.8;52.8
78438;SHT31;67736;51.978;5.656;2023-03-12T02:02:01;5.8;52.7
78438;SHT31;67736;51.978;5.656;2023-03-12T02:04:32;5.8;52.6
78438;SHT31;67736;51.978;5.656;2023-03-12T02:07:06;5.8;52.6
78438;SHT31;67736;51.978;5.656;2023-03-12T02:09:40;5.8;52.5
78438;SHT31;67736;51.978;5.656;2023-03-12T02:12:10;5.8;52.3
78438;SHT31;67736;51.978;5.656;2023-03-12T02:14:42;5.8;52.3
78438;SHT31;67736;51.978;5.656;2023-03-12T02:17:12;5.8;52.2
78438;SHT31;67736;51.978;5.656;2023-03-12T02:19:53;5.8;52.3
78438;SHT31;67736;51.978;5.656;2023-03-12T02:22:25;5.8;52.4
78438;SHT31;67736;51.978;5.656;2023-03-12T02:24:59;5.7;52.0
78438;SHT31;67736;51.978;5.656;2023-03-12T02:27:35;5.7;52.1
78438;SHT31;67736;51.978;5.656;2023-03-12T02:30:09;5.7;52.0
78438;SHT31;67736;51.978;5.656;2023-03-12T02:32:43;5.7;52.2
78438;SHT31;67736;51.978;5.656;2023-03-12T02:35:16;5.7;52.1
78438;SHT31;67736;51.978;5.656;2023-03-12T02:37:51;5.7;51.6
78438;SHT31;67736;51.978;5.656;2023-03-12T02:40:26;5.7;51.8
78438;SHT31;67736;51.978;5.656;2023-03-12T02:42:57;5.7;51.5
78438;SHT31;67736;51.978;5.656;2023-03-12T02:45:27;5.7;51.7
78438;SHT31;67736;51.978;5.656;2023-03-12T02:47:57;5.7;51.8
78438;SHT31;67736;51.978;5.656;2023-03-12T02:50:27;5.7;51.7
78438;SHT31;67736;51.978;5.656;2023-03-12T02:52:57;5.7;51.6
78438;SHT31;67736;51.978;5.656;2023-03-12T02:55:26;5.7;51.7
78438;SHT31;67736;51.978;5.656;2023-03-12T02:57:56;5.7;51.5
78438;SHT31;67736;51.978;5.656;2023-03-12T03:00:25;5.7;51.8
78438;SHT31;67736;51.978;5.656;2023-03-12T03:03:00;5.7;51.6
78438;SHT31;67736;51.978;5.656;2023-03-12T03:05:30;5.7;51.2
78438;SHT31;67736;51.978;5.656;2023-03-12T03:07:59;5.7;51.3
78438;SHT31;67736;51.978;5.656;2023-03-12T03:10:29;5.7;51.4
78438;SHT31;67736;51.978;5.656;2023-03-12T03:12:58;5.7;51.6
78438;SHT31;67736;51.978;5.656;2023-03-12T03:15:30;5.8;51.6
78438;SHT31;67736;51.978;5.656;2023-03-12T03:17:59;5.8;51.9
78438;SHT31;67736;51.978;5.656;2023-03-12T03:20:31;5.8;52.4
78438;SHT31;67736;51.978;5.656;2023-03-12T03:23:00;5.9;52.2
78438;SHT31;67736;51.978;5.656;2023-03-12T03:25:31;5.9;52.1
78438;SHT31;67736;51.978;5.656;2023-03-12T03:28:01;5.9;52.2
78438;SHT31;67736;51.978;5.656;2023-03-12T03:30:32;5.9;52.2
78438;SHT31;67736;51.978;5.656;2023-03-12T03:33:02;5.9;52.5
78438;SHT31;67736;51.978;5.656;2023-03-12T03:35:32;5.9;52.1
78438;SHT31;67736;51.978;5.656;2023-03-12T03:38:02;5.9;52.2
78438;SHT31;67736;51.978;5.656;2023-03-12T03:40:32;5.9;52.2
78438;SHT31;67736;51.978;5.656;2023-03-12T03:43:01;5.9;52.2
78438;SHT31;67736;51.978;5.656;2023-03-12T03:45:31;5.9;52.5
78438;SHT31;67736;51.978;5.656;2023-03-12T03:48:00;5.9;52.8
78438;SHT31;67736;51.978;5.656;2023-03-12T03:50:30;5.9;53.0
78438;SHT31;67736;51.978;5.656;2023-03-12T03:53:00;5.9;53.0
78438;SHT31;67736;51.978;5.656;2023-03-12T03:55:30;5.9;52.9
78438;SHT31;67736;51.978;5.656;2023-03-12T03:57:59;5.9;53.0
78438;SHT31;67736;51.978;5.656;2023-03-12T04:00:29;5.9;52.9
78438;SHT31;67736;51.978;5.656;2023-03-12T04:02:59;5.9;53.0
78438;SHT31;67736;51.978;5.656;2023-03-12T04:05:28;5.9;53.3
78438;SHT31;67736;51.978;5.656;2023-03-12T04:07:58;5.9;53.3
78438;SHT31;67736;51.978;5.656;2023-03-12T04:10:30;5.9;53.3
78438;SHT31;67736;51.978;5.656;2023-03-12T04:13:00;5.9;53.7
78438;SHT31;67736;51.978;5.656;2023-03-12T04:15:30;5.9;53.7
78438;SHT31;67736;51.978;5.656;2023-03-12T04:17:59;5.8;53.9
78438;SHT31;67736;51.978;5.656;2023-03-12T04:20:29;5.8;54.1
78438;SHT31;67736;51.978;5.656;2023-03-12T04:22:58;5.8;54.2
78438;SHT31;67736;51.978;5.656;2023-03-12T04:25:28;5.9;54.4
78438;SHT31;67736;51.978;5.656;2023-03-12T04:27:57;5.9;54.3
78438;SHT31;67736;51.978;5.656;2023-03-12T04:30:27;5.9;54.3
78438;SHT31;67736;51.978;5.656;2023-03-12T04:32:57;5.9;54.5
78438;SHT31;67736;51.978;5.656;2023-03-12T04:35:27;5.9;54.5
78438;SHT31;67736;51.978;5.656;2023-03-12T04:37:56;5.9;54.7
78438;SHT31;67736;51.978;5.656;2023-03-12T04:40:27;5.9;55.0
78438;SHT31;67736;51.978;5.656;2023-03-12T04:42:56;5.9;55.4
78438;SHT31;67736;51.978;5.656;2023-03-12T04:45:26;5.9;55.9
78438;SHT31;67736;51.978;5.656;2023-03-12T04:47:55;5.9;56.3
78438;SHT31;67736;51.978;5.656;2023-03-12T04:50:27;5.9;56.7
78438;SHT31;67736;51.978;5.656;2023-03-12T04:52:56;5.9;57.1
78438;SHT31;67736;51.978;5.656;2023-03-12T04:55:26;5.9;57.1
78438;SHT31;67736;51.978;5.656;2023-03-12T04:57:55;5.9;57.5
78438;SHT31;67736;51.978;5.656;2023-03-12T05:00:25;5.9;57.5
78438;SHT31;67736;51.978;5.656;2023-03-12T05:02:54;5.9;57.7
78438;SHT31;67736;51.978;5.656;2023-03-12T05:05:24;5.9;57.7
78438;SHT31;67736;51.978;5.656;2023-03-12T05:08:00;5.9;57.6
78438;SHT31;67736;51.978;5.656;2023-03-12T05:10:31;5.9;57.8
78438;SHT31;67736;51.978;5.656;2023-03-12T05:13:01;5.9;57.4
78438;SHT31;67736;51.978;5.656;2023-03-12T05:15:30;5.9;57.3
78438;SHT31;67736;51.978;5.656;2023-03-12T05:18:00;5.9;57.3
78438;SHT31;67736;51.978;5.656;2023-03-12T05:20:29;5.9;57.2
78438;SHT31;67736;51.978;5.656;2023-03-12T05:22:59;5.9;57.5
78438;SHT31;67736;51.978;5.656;2023-03-12T05:25:28;5.9;57.6
78438;SHT31;67736;51.978;5.656;2023-03-12T05:28:01;5.9;57.8
78438;SHT31;67736;51.978;5.656;2023-03-12T05:30:30;5.9;57.8
78438;SHT31;67736;51.978;5.656;2023-03-12T05:33:01;5.9;57.6
78438;SHT31;67736;51.978;5.656;2023-03-12T05:35:30;5.9;57.6
78438;SHT31;67736;51.978;5.656;2023-03-12T05:38:00;5.9;57.5
78438;SHT31;67736;51.978;5.656;2023-03-12T05:40:30;5.9;57.5
78438;SHT31;67736;51.978;5.656;2023-03-12T05:42:59;5.9;57.4
78438;SHT31;67736;51.978;5.656;2023-03-12T05:45:29;5.9;57.5
78438;SHT31;67736;51.978;5.656;2023-03-12T05:47:58;5.9;57.6
78438;SHT31;67736;51.978;5.656;2023-03-12T05:50:31;5.9;57.6
78438;SHT31;67736;51.978;5.656;2023-03-12T05:53:00;5.9;57.8
78438;SHT31;67736;51.978;5.656;2023-03-12T05:55:33;5.9;57.8
78438;SHT31;67736;51.978;5.656;2023-03-12T05:58:03;5.9;58.0
78438;SHT31;67736;51.978;5.656;2023-03-12T06:00:34;5.9;57.9
78438;SHT31;67736;51.978;5.656;2023-03-12T06:03:04;5.9;58.1
78438;SHT31;67736;51.978;5.656;2023-03-12T06:05:37;5.9;58.2
78438;SHT31;67736;51.978;5.656;2023-03-12T06:08:07;5.9;58.4
78438;SHT31;67736;51.978;5.656;2023-03-12T06:10:38;5.9;58.8
78438;SHT31;67736;51.978;5.656;2023-03-12T06:13:07;5.9;59.1
78438;SHT31;67736;51.978;5.656;2023-03-12T06:15:38;5.9;59.5
78438;SHT31;67736;51.978;5.656;2023-03-12T06:18:07;5.9;60.1
78438;SHT31;67736;51.978;5.656;2023-03-12T06:20:36;5.9;61.0
78438;SHT31;67736;51.978;5.656;2023-03-12T06:23:06;5.9;61.1
78438;SHT31;67736;51.978;5.656;2023-03-12T06:25:35;5.9;61.0
78438;SHT31;67736;51.978;5.656;2023-03-12T06:28:05;5.9;61.1
78438;SHT31;67736;51.978;5.656;2023-03-12T06:30:34;5.9;61.1
78438;SHT31;67736;51.978;5.656;2023-03-12T06:33:04;5.9;61.4
78438;SHT31;67736;51.978;5.656;2023-03-12T06:35:35;5.9;61.6
78438;SHT31;67736;51.978;5.656;2023-03-12T06:38:05;5.9;61.5
78438;SHT31;67736;51.978;5.656;2023-03-12T06:40:34;5.9;61.8
78438;SHT31;67736;51.978;5.656;2023-03-12T06:43:04;5.9;61.9
78438;SHT31;67736;51.978;5.656;2023-03-12T06:45:38;5.9;62.5
78438;SHT31;67736;51.978;5.656;2023-03-12T06:48:08;5.9;63.2
78438;SHT31;67736;51.978;5.656;2023-03-12T06:50:37;5.9;63.9
78438;SHT31;67736;51.978;5.656;2023-03-12T06:53:06;5.9;64.5
78438;SHT31;67736;51.978;5.656;2023-03-12T06:55:36;5.9;64.9
78438;SHT31;67736;51.978;5.656;2023-03-12T06:58:10;5.9;65.4
78438;SHT31;67736;51.978;5.656;2023-03-12T07:00:40;5.9;65.8
78438;SHT31;67736;51.978;5.656;2023-03-12T07:03:10;5.9;66.0
78438;SHT31;67736;51.978;5.656;2023-03-12T07:05:42;5.9;66.5
78438;SHT31;67736;51.978;5.656;2023-03-12T07:08:13;5.9;66.9
78438;SHT31;67736;51.978;5.656;2023-03-12T07:10:42;5.9;67.3
78438;SHT31;67736;51.978;5.656;2023-03-12T07:13:12;5.8;67.8
78438;SHT31;67736;51.978;5.656;2023-03-12T07:15:42;5.8;68.2
78438;SHT31;67736;51.978;5.656;2023-03-12T07:18:12;5.8;68.5
78438;SHT31;67736;51.978;5.656;2023-03-12T07:20:43;5.8;68.8
78438;SHT31;67736;51.978;5.656;2023-03-12T07:23:15;5.8;69.2
78438;SHT31;67736;51.978;5.656;2023-03-12T07:25:45;5.7;69.6
78438;SHT31;67736;51.978;5.656;2023-03-12T07:28:15;5.7;69.9
78438;SHT31;67736;51.978;5.656;2023-03-12T07:30:45;5.7;70.5
78438;SHT31;67736;51.978;5.656;2023-03-12T07:33:19;5.7;70.7
78438;SHT31;67736;51.978;5.656;2023-03-12T07:35:49;5.7;70.7
78438;SHT31;67736;51.978;5.656;2023-03-12T07:38:18;5.7;70.7
78438;SHT31;67736;51.978;5.656;2023-03-12T07:40:51;5.7;71.0
78438;SHT31;67736;51.978;5.656;2023-03-12T07:43:22;5.7;71.3
78438;SHT31;67736;51.978;5.656;2023-03-12T07:45:52;5.8;71.6
78438;SHT31;67736;51.978;5.656;2023-03-12T07:48:22;5.8;71.7
78438;SHT31;67736;51.978;5.656;2023-03-12T07:50:52;5.8;72.0
78438;SHT31;67736;51.978;5.656;2023-03-12T07:53:21;5.8;72.3
78438;SHT31;67736;51.978;5.656;2023-03-12T07:55:51;5.8;72.7
78438;SHT31;67736;51.978;5.656;2023-03-12T07:58:20;5.8;72.9
78438;SHT31;67736;51.978;5.656;2023-03-12T08:00:50;5.9;73.0
78438;SHT31;67736;51.978;5.656;2023-03-12T08:03:20;5.9;73.2
78438;SHT31;67736;51.978;5.656;2023-03-12T08:05:57;5.9;73.3
78438;SHT31;67736;51.978;5.656;2023-03-12T08:08:28;6.0;73.4
78438;SHT31;67736;51.978;5.656;2023-03-12T08:10:59;6.0;73.4
78438;SHT31;67736;51.978;5.656;2023-03-12T08:13:30;6.0;73.5
78438;SHT31;67736;51.978;5.656;2023-03-12T08:16:00;6.0;73.5
78438;SHT31;67736;51.978;5.656;2023-03-12T08:18:32;6.1;73.6
78438;SHT31;67736;51.978;5.656;2023-03-12T08:21:02;6.1;73.6
78438;SHT31;67736;51.978;5.656;2023-03-12T08:23:33;6.1;73.7
78438;SHT31;67736;51.978;5.656;2023-03-12T08:26:03;6.2;73.8
78438;SHT31;67736;51.978;5.656;2023-03-12T08:28:33;6.2;73.8
78438;SHT31;67736;51.978;5.656;2023-03-12T08:31:02;6.2;73.9
78438;SHT31;67736;51.978;5.656;2023-03-12T08:33:32;6.3;73.9
78438;SHT31;67736;51.978;5.656;2023-03-12T08:36:01;6.3;74.0
78438;SHT31;67736;51.978;5.656;2023-03-12T08:38:32;6.3;74.1
78438;SHT31;67736;51.978;5.656;2023-03-12T08:41:02;6.4;74.1
78438;SHT31;67736;51.978;5.656;2023-03-12T08:43:32;6.4;74.3
78438;SHT31;67736;51.978;5.656;2023-03-12T08:46:02;6.5;74.2
78438;SHT31;67736;51.978;5.656;2023-03-12T08:48:32;6.5;74.2
78438;SHT31;67736;51.978;5.656;2023-03-12T08:51:01;6.6;74.2
78438;SHT31;67736;51.978;5.656;2023-03-12T08:53:35;6.6;74.2
78438;SHT31;67736;51.978;5.656;2023-03-12T08:56:08;6.7;74.2
78438;SHT31;67736;51.978;5.656;2023-03-12T08:58:38;6.7;74.3
78438;SHT31;67736;51.978;5.656;2023-03-12T09:01:10;6.8;74.1
78438;SHT31;67736;51.978;5.656;2023-03-12T09:03:40;6.8;74.2
78438;SHT31;67736;51.978;5.656;2023-03-12T09:06:11;6.9;74.4
78438;SHT31;67736;51.978;5.656;2023-03-12T09:08:43;6.9;74.5
78438;SHT31;67736;51.978;5.656;2023-03-12T09:11:14;7.0;74.5
78438;SHT31;67736;51.978;5.656;2023-03-12T09:13:44;7.0;74.6
78438;SHT31;67736;51.978;5.656;2023-03-12T09:16:13;7.1;74.6
78438;SHT31;67736;51.978;5.656;2023-03-12T09:18:43;7.1;74.6
78438;SHT31;67736;51.978;5.656;2023-03-12T09:21:12;7.1;74.7
78438;SHT31;67736;51.978;5.656;2023-03-12T09:23:42;7.2;74.7
78438;SHT31;67736;51.978;5.656;2023-03-12T09:26:12;7.2;74.8
78438;SHT31;67736;51.978;5.656;2023-03-12T09:28:43;7.3;74.8
78438;SHT31;67736;51.978;5.656;2023-03-12T09:31:13;7.3;74.8
78438;SHT31;67736;51.978;5.656;2023-03-12T09:33:43;7.3;75.4
78438;SHT31;67736;51.978;5.656;2023-03-12T09:36:13;7.4;75.6
78438;SHT31;67736;51.978;5.656;2023-03-12T09:38:42;7.4;76.0
78438;SHT31;67736;51.978;5.656;2023-03-12T09:41:20;7.4;76.2
78438;SHT31;67736;51.978;5.656;2023-03-12T09:43:56;7.5;76.3
78438;SHT31;67736;51.978;5.656;2023-03-12T09:46:32;7.5;76.4
78438;SHT31;67736;51.978;5.656;2023-03-12T09:49:10;7.5;76.5
78438;SHT31;67736;51.978;5.656;2023-03-12T09:51:43;7.6;76.8
78438;SHT31;67736;51.978;5.656;2023-03-12T09:54:22;7.6;77.0
78438;SHT31;67736;51.978;5.656;2023-03-12T09:56:59;7.7;77.1
78438;SHT31;67736;51.978;5.656;2023-03-12T09:59:31;7.7;77.1
78438;SHT31;67736;51.978;5.656;2023-03-12T10:02:23;7.8;77.1
78438;SHT31;67736;51.978;5.656;2023-03-12T10:04:43;7.9;77.2
78438;SHT31;67736;51.978;5.656;2023-03-12T10:07:20;7.9;77.3
78438;SHT31;67736;51.978;5.656;2023-03-12T10:10:05;8.0;77.3
78438;SHT31;67736;51.978;5.656;2023-03-12T10:12:53;8.1;77.4
78438;SHT31;67736;51.978;5.656;2023-03-12T10:15:38;8.1;77.6
78438;SHT31;67736;51.978;5.656;2023-03-12T10:18:23;8.2;77.8
78438;SHT31;67736;51.978;5.656;2023-03-12T10:21:01;8.3;77.9
78438;SHT31;67736;51.978;5.656;2023-03-12T10:23:46;8.3;78.0
78438;SHT31;67736;51.978;5.656;2023-03-12T10:26:22;8.4;78.0
78438;SHT31;67736;51.978;5.656;2023-03-12T10:28:58;8.5;77.8
78438;SHT31;67736;51.978;5.656;2023-03-12T10:31:33;8.5;78.0
78438;SHT31;67736;51.978;5.656;2023-03-12T10:34:13;8.6;78.0
78438;SHT31;67736;51.978;5.656;2023-03-12T10:36:45;8.7;78.3
78438;SHT31;67736;51.978;5.656;2023-03-12T10:39:17;8.8;78.7
78438;SHT31;67736;51.978;5.656;2023-03-12T10:41:48;8.8;78.9
78438;SHT31;67736;51.978;5.656;2023-03-12T10:44:22;8.9;79.1
78438;SHT31;67736;51.978;5.656;2023-03-12T10:47:00;9.0;79.3
78438;SHT31;67736;51.978;5.656;2023-03-12T10:49:35;9.1;79.5
78438;SHT31;67736;51.978;5.656;2023-03-12T10:52:15;9.1;79.8
78438;SHT31;67736;51.978;5.656;2023-03-12T10:54:48;9.2;80.0
78438;SHT31;67736;51.978;5.656;2023-03-12T10:57:18;9.3;80.1
78438;SHT31;67736;51.978;5.656;2023-03-12T10:59:49;9.4;80.3
78438;SHT31;67736;51.978;5.656;2023-03-12T11:02:34;9.4;80.4
78438;SHT31;67736;51.978;5.656;2023-03-12T11:05:19;9.5;80.4
78438;SHT31;67736;51.978;5.656;2023-03-12T11:07:50;9.6;80.6
78438;SHT31;67736;51.978;5.656;2023-03-12T11:10:23;9.7;80.6
78438;SHT31;67736;51.978;5.656;2023-03-12T11:12:58;9.8;80.5
78438;SHT31;67736;51.978;5.656;2023-03-12T11:15:39;9.9;80.4
78438;SHT31;67736;51.978;5.656;2023-03-12T11:18:21;10.0;80.6
78438;SHT31;67736;51.978;5.656;2023-03-12T11:20:53;10.1;80.6
78438;SHT31;67736;51.978;5.656;2023-03-12T11:23:26;10.2;80.2
78438;SHT31;67736;51.978;5.656;2023-03-12T11:25:59;10.3;79.9
78438;SHT31;67736;51.978;5.656;2023-03-12T11:28:35;10.4;79.3
78438;SHT31;67736;51.978;5.656;2023-03-12T11:31:08;10.5;78.7
78438;SHT31;67736;51.978;5.656;2023-03-12T11:33:39;10.6;78.3
78438;SHT31;67736;51.978;5.656;2023-03-12T11:36:23;10.6;78.1
78438;SHT31;67736;51.978;5.656;2023-03-12T11:39:02;10.7;78.3
78438;SHT31;67736;51.978;5.656;2023-03-12T11:41:40;10.8;78.2
78438;SHT31;67736;51.978;5.656;2023-03-12T11:44:19;10.8;78.0
78438;SHT31;67736;51.978;5.656;2023-03-12T11:47:02;10.9;77.9
78438;SHT31;67736;51.978;5.656;2023-03-12T11:50:05;10.9;77.9
78438;SHT31;67736;51.978;5.656;2023-03-12T11:52:50;11.0;78.0
78438;SHT31;67736;51.978;5.656;2023-03-12T11:55:37;11.0;78.3
78438;SHT31;67736;51.978;5.656;2023-03-12T11:58:22;11.1;78.4
78438;SHT31;67736;51.978;5.656;2023-03-12T12:01:02;11.2;78.6
78438;SHT31;67736;51.978;5.656;2023-03-12T12:05:42;11.2;78.2
78438;SHT31;67736;51.978;5.656;2023-03-12T12:08:29;11.3;77.1
78438;SHT31;67736;51.978;5.656;2023-03-12T12:11:05;11.4;76.9
78438;SHT31;67736;51.978;5.656;2023-03-12T12:14:00;11.5;76.9
78438;SHT31;67736;51.978;5.656;2023-03-12T12:16:50;11.5;76.9
78438;SHT31;67736;51.978;5.656;2023-03-12T12:19:34;11.6;77.2
78438;SHT31;67736;51.978;5.656;2023-03-12T12:22:22;11.6;76.9
78438;SHT31;67736;51.978;5.656;2023-03-12T12:25:22;11.7;76.4
78438;SHT31;67736;51.978;5.656;2023-03-12T12:28:15;11.8;76.2
78438;SHT31;67736;51.978;5.656;2023-03-12T12:31:04;11.8;75.8
78438;SHT31;67736;51.978;5.656;2023-03-12T12:33:51;11.9;74.7
78438;SHT31;67736;51.978;5.656;2023-03-12T12:36:28;11.9;74.2
78438;SHT31;67736;51.978;5.656;2023-03-12T12:39:03;12.0;74.1
78438;SHT31;67736;51.978;5.656;2023-03-12T12:41:40;12.0;74.1
78438;SHT31;67736;51.978;5.656;2023-03-12T12:44:15;12.0;74.7
78438;SHT31;67736;51.978;5.656;2023-03-12T12:46:51;12.1;74.1
78438;SHT31;67736;51.978;5.656;2023-03-12T12:49:27;12.1;74.1
78438;SHT31;67736;51.978;5.656;2023-03-12T12:52:01;12.1;73.6
78438;SHT31;67736;51.978;5.656;2023-03-12T12:54:37;12.1;73.1
78438;SHT31;67736;51.978;5.656;2023-03-12T12:57:16;12.2;72.7
78438;SHT31;67736;51.978;5.656;2023-03-12T12:59:56;12.2;72.1
78438;SHT31;67736;51.978;5.656;2023-03-12T13:02:37;12.2;71.9
78438;SHT31;67736;51.978;5.656;2023-03-12T13:05:16;12.2;72.2
78438;SHT31;67736;51.978;5.656;2023-03-12T13:07:47;12.2;72.1
78438;SHT31;67736;51.978;5.656;2023-03-12T13:10:40;12.2;71.9
78438;SHT31;67736;51.978;5.656;2023-03-12T13:13:19;12.2;72.0
78438;SHT31;67736;51.978;5.656;2023-03-12T13:15:51;12.2;71.3
78438;SHT31;67736;51.978;5.656;2023-03-12T13:18:27;12.3;71.3
78438;SHT31;67736;51.978;5.656;2023-03-12T13:21:25;12.3;71.5
78438;SHT31;67736;51.978;5.656;2023-03-12T13:24:08;12.3;71.0
78438;SHT31;67736;51.978;5.656;2023-03-12T13:27:12;12.4;70.8
78438;SHT31;67736;51.978;5.656;2023-03-12T13:29:47;12.4;70.2
78438;SHT31;67736;51.978;5.656;2023-03-12T13:35:33;12.5;69.0
78438;SHT31;67736;51.978;5.656;2023-03-12T13:38:08;12.5;69.0
78438;SHT31;67736;51.978;5.656;2023-03-12T13:41:39;12.6;69.0
78438;SHT31;67736;51.978;5.656;2023-03-12T13:44:35;12.6;68.1
78438;SHT31;67736;51.978;5.656;2023-03-12T13:47:19;12.7;66.9
78438;SHT31;67736;51.978;5.656;2023-03-12T13:49:56;12.7;66.4
78438;SHT31;67736;51.978;5.656;2023-03-12T13:52:28;12.7;66.2
78438;SHT31;67736;51.978;5.656;2023-03-12T13:55:04;12.7;66.1
78438;SHT31;67736;51.978;5.656;2023-03-12T13:57:40;12.8;65.7
78438;SHT31;67736;51.978;5.656;2023-03-12T14:00:21;12.8;66.1
78438;SHT31;67736;51.978;5.656;2023-03-12T14:02:57;12.9;65.8
78438;SHT31;67736;51.978;5.656;2023-03-12T14:05:42;12.9;65.6
78438;SHT31;67736;51.978;5.656;2023-03-12T14:08:26;13.0;65.3
78438;SHT31;67736;51.978;5.656;2023-03-12T14:11:18;13.0;65.6
78438;SHT31;67736;51.978;5.656;2023-03-12T14:14:34;13.1;64.7
78438;SHT31;67736;51.978;5.656;2023-03-12T14:17:17;13.2;63.9
78438;SHT31;67736;51.978;5.656;2023-03-12T14:19:59;13.2;63.0
78438;SHT31;67736;51.978;5.656;2023-03-12T14:22:33;13.3;64.1
78438;SHT31;67736;51.978;5.656;2023-03-12T14:25:13;13.3;64.0
78438;SHT31;67736;51.978;5.656;2023-03-12T14:27:46;13.4;63.7
78438;SHT31;67736;51.978;5.656;2023-03-12T14:30:21;13.4;61.8
78438;SHT31;67736;51.978;5.656;2023-03-12T14:32:55;13.5;62.4
78438;SHT31;67736;51.978;5.656;2023-03-12T14:35:29;13.5;62.5
78438;SHT31;67736;51.978;5.656;2023-03-12T14:38:05;13.6;60.3
78438;SHT31;67736;51.978;5.656;2023-03-12T14:40:40;13.6;60.2
78438;SHT31;67736;51.978;5.656;2023-03-12T14:43:23;13.6;60.0
78438;SHT31;67736;51.978;5.656;2023-03-12T14:45:57;13.7;59.8
78438;SHT31;67736;51.978;5.656;2023-03-12T14:48:31;13.7;59.0
78438;SHT31;67736;51.978;5.656;2023-03-12T14:51:03;13.7;59.4
78438;SHT31;67736;51.978;5.656;2023-03-12T14:53:34;13.7;58.0
78438;SHT31;67736;51.978;5.656;2023-03-12T14:56:14;13.8;58.6
78438;SHT31;67736;51.978;5.656;2023-03-12T14:58:48;13.8;58.7
78438;SHT31;67736;51.978;5.656;2023-03-12T15:01:20;13.8;59.8
78438;SHT31;67736;51.978;5.656;2023-03-12T15:03:54;13.8;59.9
78438;SHT31;67736;51.978;5.656;2023-03-12T15:06:28;13.8;58.5
78438;SHT31;67736;51.978;5.656;2023-03-12T15:09:00;13.8;58.1
78438;SHT31;67736;51.978;5.656;2023-03-12T15:11:33;13.8;58.2
78438;SHT31;67736;51.978;5.656;2023-03-12T15:14:07;13.9;58.5
78438;SHT31;67736;51.978;5.656;2023-03-12T15:16:37;13.9;59.1
78438;SHT31;67736;51.978;5.656;2023-03-12T15:19:11;13.9;58.2
78438;SHT31;67736;51.978;5.656;2023-03-12T15:21:44;13.9;58.2
78438;SHT31;67736;51.978;5.656;2023-03-12T15:24:15;13.9;56.3
78438;SHT31;67736;51.978;5.656;2023-03-12T15:26:45;13.9;56.6
78438;SHT31;67736;51.978;5.656;2023-03-12T15:29:24;13.9;56.8
78438;SHT31;67736;51.978;5.656;2023-03-12T15:31:58;13.9;57.7
78438;SHT31;67736;51.978;5.656;2023-03-12T15:34:32;13.9;57.5
78438;SHT31;67736;51.978;5.656;2023-03-12T15:37:20;13.9;58.0
78438;SHT31;67736;51.978;5.656;2023-03-12T15:39:52;13.9;57.5
78438;SHT31;67736;51.978;5.656;2023-03-12T15:42:24;13.9;57.0
78438;SHT31;67736;51.978;5.656;2023-03-12T15:44:58;13.8;57.1
78438;SHT31;67736;51.978;5.656;2023-03-12T15:47:32;13.8;57.1
78438;SHT31;67736;51.978;5.656;2023-03-12T15:50:11;13.8;56.9
78438;SHT31;67736;51.978;5.656;2023-03-12T15:52:41;13.8;56.9
78438;SHT31;67736;51.978;5.656;2023-03-12T15:55:22;13.8;56.7
78438;SHT31;67736;51.978;5.656;2023-03-12T15:57:54;13.8;56.6
78438;SHT31;67736;51.978;5.656;2023-03-12T16:00:25;13.8;56.9
78438;SHT31;67736;51.978;5.656;2023-03-12T16:02:57;13.8;57.0
78438;SHT31;67736;51.978;5.656;2023-03-12T16:05:30;13.8;57.0
78438;SHT31;67736;51.978;5.656;2023-03-12T16:08:12;13.8;57.1
78438;SHT31;67736;51.978;5.656;2023-03-12T16:10:43;13.8;57.0
78438;SHT31;67736;51.978;5.656;2023-03-12T16:13:16;13.8;57.3
78438;SHT31;67736;51.978;5.656;2023-03-12T16:15:47;13.8;57.7
78438;SHT31;67736;51.978;5.656;2023-03-12T16:18:19;13.8;57.8
78438;SHT31;67736;51.978;5.656;2023-03-12T16:20:50;13.8;58.1
78438;SHT31;67736;51.978;5.656;2023-03-12T16:23:22;13.8;58.4
78438;SHT31;67736;51.978;5.656;2023-03-12T16:25:53;13.7;58.7
78438;SHT31;67736;51.978;5.656;2023-03-12T16:28:25;13.7;58.6
78438;SHT31;67736;51.978;5.656;2023-03-12T16:30:54;13.7;58.6
78438;SHT31;67736;51.978;5.656;2023-03-12T16:33:24;13.7;58.7
78438;SHT31;67736;51.978;5.656;2023-03-12T16:35:55;13.7;58.9
78438;SHT31;67736;51.978;5.656;2023-03-12T16:38:25;13.7;58.8
78438;SHT31;67736;51.978;5.656;2023-03-12T16:40:54;13.7;59.0
78438;SHT31;67736;51.978;5.656;2023-03-12T16:43:25;13.6;59.0
78438;SHT31;67736;51.978;5.656;2023-03-12T16:45:57;13.6;59.0
78438;SHT31;67736;51.978;5.656;2023-03-12T16:48:26;13.6;58.5
78438;SHT31;67736;51.978;5.656;2023-03-12T16:50:56;13.5;58.6
78438;SHT31;67736;51.978;5.656;2023-03-12T16:53:26;13.4;58.8
78438;SHT31;67736;51.978;5.656;2023-03-12T16:55:58;13.4;58.9
78438;SHT31;67736;51.978;5.656;2023-03-12T16:58:29;13.4;59.1